Time;durP1;ratioP1;P1;durP2;ratioP2;P2;SDS_P1;SDS_P2;PMS_P1;PMS_P2;Temp;Humidity;BMP_temperature;BMP_pressure;BME280_temperature;BME280_humidity;BME280_pressure;Samples;Min_cycle;Max_cycle;Signal;HPM_P1;HPM_P2
2023/03/31 00:01:40;;;;;;;;;;;;;;;;;;5024956;28;43126;-89
2023/03/31 00:04:07;;;;;;;;;;;;;;;;;;5006890;28;43014;-88
2023/03/31 00:06:36;;;;;;;;;;;;;;;;;;5006568;28;44829;-89
2023/03/31 00:09:02;;;;;;;;;;;;;;;;;;5007611;28;42983;-89
2023/03/31 00:11:28;;;;;;;;;;;;;;;;;;5006771;28;44605;-88
2023/03/31 00:13:54;;;;;;;;;;;;;;;;;;5006633;28;43082;-88
2023/03/31 00:16:20;;;;;;;;;;;;;;;;;;5024710;28;43568;-88
2023/03/31 00:18:49;;;;;;;;;;;;;;;;;;5006878;28;42924;-88
2023/03/31 00:21:23;;;;;;;;;;;;;;;;;;5005304;28;44586;-88
2023/03/31 00:23:49;;;;;;;;;;;;;;;;;;5022165;28;42972;-89
2023/03/31 00:26:18;;;;;;;;;;;;;;;;;;5022942;28;45367;-88
2023/03/31 00:28:44;;;;;;;;;;;;;;;;;;5023620;28;42875;-89
2023/03/31 00:31:10;;;;;;;;;;;;;;;;;;5023152;28;44835;-89
2023/03/31 00:33:36;;;;;;;;;;;;;;;;;;5023420;28;42917;-89
2023/03/31 00:36:04;;;;;;;;;;;;;;;;;;5024854;28;44054;-88
2023/03/31 00:38:30;;;;;;;;;;;;;;;;;;5022581;28;43080;-89
2023/03/31 00:40:56;;;;;;;;;;;;;;;;;;5022746;28;45153;-89
2023/03/31 00:43:22;;;;;;;;;;;;;;;;;;5023048;28;42997;-89
2023/03/31 00:45:48;;;;;;;;;;;;;;;;;;5022194;28;44058;-89
2023/03/31 00:48:14;;;;;;;;;;;;;;;;;;5022273;28;43073;-88
2023/03/31 00:50:40;;;;;;;;;;;;;;;;;;5022879;28;44830;-88
2023/03/31 00:53:06;;;;;;;;;;;;;;;;;;5023132;28;42938;-88
2023/03/31 00:55:32;;;;;;;;;;;;;;;;;;5022608;28;45747;-88
2023/03/31 00:58:00;;;;;;;;;;;;;;;;;;5023048;28;42911;-88
2023/03/31 01:00:26;;;;;;;;;;;;;;;;;;5022723;28;45415;-88
2023/03/31 01:02:54;;;;;;;;;;;;;;;;;;5022287;28;43184;-88
2023/03/31 01:05:21;;;;;;;;;;;;;;;;;;5021847;28;45323;-87
2023/03/31 01:07:47;;;;;;;;;;;;;;;;;;5023174;28;42929;-88
2023/03/31 01:10:13;;;;;;;;;;;;;;;;;;5022977;28;44364;-89
2023/03/31 01:12:39;;;;;;;;;;;;;;;;;;5022788;28;42949;-89
2023/03/31 01:15:05;;;;;;;;;;;;;;;;;;5024229;28;43057;-89
2023/03/31 01:17:30;;;;;;;;;;;;;;;;;;5022495;28;43173;-88
2023/03/31 01:19:57;;;;;;;;;;;;;;;;;;5022235;28;44480;-89
2023/03/31 01:22:23;;;;;;;;;;;;;;;;;;5022689;28;43073;-89
2023/03/31 01:24:50;;;;;;;;;;;;;;;;;;5022432;28;44614;-88
2023/03/31 01:27:16;;;;;;;;;;;;;;;;;;5020916;28;43078;-88
2023/03/31 01:29:42;;;;;;;;;;;;;;;;;;5023769;28;43033;-89
2023/03/31 01:32:08;;;;;;;;;;;;;;;;;;5026014;28;42960;-89
2023/03/31 01:34:36;;;;;;;;;;;;;;;;;;5025633;28;44444;-88
2023/03/31 01:37:02;;;;;;;;;;;;;;;;;;5025559;28;43092;-89
2023/03/31 01:39:28;;;;;;;;;;;;;;;;;;5025045;28;44427;-90
2023/03/31 01:41:54;;;;;;;;;;;;;;;;;;5027025;28;43031;-89
2023/03/31 01:44:20;;;;;;;;;;;;;;;;;;5025508;28;44543;-86
2023/03/31 01:46:46;;;;;;;;;;;;;;;;;;5025639;28;42764;-88
2023/03/31 01:49:12;;;;;;;;;;;;;;;;;;5025941;28;45502;-89
2023/03/31 01:51:38;;;;;;;;;;;;;;;;;;5025826;28;42794;-89
2023/03/31 01:54:04;;;;;;;;;;;;;;;;;;5025518;28;45488;-87
2023/03/31 01:56:30;;;;;;;;;;;;;;;;;;5025713;28;42952;-88
2023/03/31 01:58:56;;;;;;;;;;;;;;;;;;5025724;28;44721;-85
2023/03/31 02:01:24;;;;;;;;;;;;;;;;;;5027346;28;42800;-89
2023/03/31 02:03:50;;;;;;;;;;;;;;;;;;5025404;28;44878;-88
2023/03/31 02:06:16;;;;;;;;;;;;;;;;;;5025177;28;43127;-88
2023/03/31 02:08:41;;;;;;;;;;;;;;;;;;5025586;28;44395;-88
2023/03/31 02:11:07;;;;;;;;;;;;;;;;;;5025168;28;43059;-89
2023/03/31 02:13:33;;;;;;;;;;;;;;;;;;5024656;28;44434;-88
2023/03/31 02:16:00;;;;;;;;;;;;;;;;;;5024522;28;42782;-88
2023/03/31 02:18:26;;;;;;;;;;;;;;;;;;5024701;28;44085;-88
2023/03/31 02:20:52;;;;;;;;;;;;;;;;;;5024739;28;43080;-87
2023/03/31 02:23:18;;;;;;;;;;;;;;;;;;5021028;28;44397;-88
2023/03/31 02:25:45;;;;;;;;;;;;;;;;;;5003397;28;43935;-88
2023/03/31 02:28:11;;;;;;;;;;;;;;;;;;5003878;28;45490;-88
2023/03/31 02:30:36;;;;;;;;;;;;;;;;;;5004926;28;42914;-88
2023/03/31 02:33:04;;;;;;;;;;;;;;;;;;5004949;28;44676;-88
2023/03/31 02:35:30;;;;;;;;;;;;;;;;;;5006263;28;42919;-88
2023/03/31 02:37:57;;;;;;;;;;;;;;;;;;5003764;28;45853;-88
2023/03/31 02:40:26;;;;;;;;;;;;;;;;;;5005388;28;43137;-87
2023/03/31 02:42:52;;;;;;;;;;;;;;;;;;5004409;28;44909;-88
2023/03/31 02:45:18;;;;;;;;;;;;;;;;;;5003908;28;42928;-88
2023/03/31 02:47:44;;;;;;;;;;;;;;;;;;5003968;28;44533;-87
2023/03/31 02:50:10;;;;;;;;;;;;;;;;;;5003592;28;43303;-88
2023/03/31 02:52:36;;;;;;;;;;;;;;;;;;5005099;28;43004;-86
2023/03/31 02:55:02;;;;;;;;;;;;;;;;;;5003503;28;43021;-88
2023/03/31 02:57:28;;;;;;;;;;;;;;;;;;5006628;28;45467;-88
2023/03/31 02:59:54;;;;;;;;;;;;;;;;;;5024109;28;42966;-87
2023/03/31 03:02:20;;;;;;;;;;;;;;;;;;5022097;28;44431;-86
2023/03/31 03:04:48;;;;;;;;;;;;;;;;;;5022839;28;43243;-88
2023/03/31 03:07:14;;;;;;;;;;;;;;;;;;5023867;28;45081;-88
2023/03/31 03:09:40;;;;;;;;;;;;;;;;;;5024110;28;42926;-88
2023/03/31 03:12:09;;;;;;;;;;;;;;;;;;5021480;28;44113;-89
2023/03/31 03:14:35;;;;;;;;;;;;;;;;;;5023258;28;43076;-88
2023/03/31 03:17:01;;;;;;;;;;;;;;;;;;5023294;28;45558;-88
2023/03/31 03:19:27;;;;;;;;;;;;;;;;;;5025064;28;42980;-88
2023/03/31 03:21:53;;;;;;;;;;;;;;;;;;5022342;28;44414;-87
2023/03/31 03:24:21;;;;;;;;;;;;;;;;;;5022736;28;42830;-89
2023/03/31 03:26:47;;;;;;;;;;;;;;;;;;5023325;28;45723;-89
2023/03/31 03:29:13;;;;;;;;;;;;;;;;;;5021421;28;42954;-88
2023/03/31 03:31:39;;;;;;;;;;;;;;;;;;5023104;28;43999;-88
2023/03/31 03:34:11;;;;;;;;;;;;;;;;;;5023408;28;43100;-89
2023/03/31 03:36:37;;;;;;;;;;;;;;;;;;5023071;28;45832;-88
2023/03/31 03:39:03;;;;;;;;;;;;;;;;;;5022943;28;43094;-89
2023/03/31 03:41:30;;;;;;;;;;;;;;;;;;5023379;28;44861;-87
2023/03/31 03:43:55;;;;;;;;;;;;;;;;;;5022965;28;43069;-86
2023/03/31 03:46:21;;;;;;;;;;;;;;;;;;5006753;28;43671;-86
2023/03/31 03:48:47;;;;;;;;;;;;;;;;;;5006361;28;42976;-87
2023/03/31 03:51:13;;;;;;;;;;;;;;;;;;5006137;28;44264;-86
2023/03/31 03:53:39;;;;;;;;;;;;;;;;;;5005930;28;42882;-88
2023/03/31 03:56:05;;;;;;;;;;;;;;;;;;5004953;28;45435;-88
2023/03/31 03:58:31;;;;;;;;;;;;;;;;;;5022525;28;43267;-86
2023/03/31 04:00:57;;;;;;;;;;;;;;;;;;5021730;28;44722;-87
2023/03/31 04:03:23;;;;;;;;;;;;;;;;;;5022594;28;42956;-88
2023/03/31 04:05:49;;;;;;;;;;;;;;;;;;5021327;28;45589;-87
2023/03/31 04:08:15;;;;;;;;;;;;;;;;;;5022450;28;43087;-87
2023/03/31 04:10:41;;;;;;;;;;;;;;;;;;5020283;28;45619;-87
2023/03/31 04:13:07;;;;;;;;;;;;;;;;;;5014301;28;42996;-87
2023/03/31 04:15:33;;;;;;;;;;;;;;;;;;5016604;28;45052;-88
2023/03/31 04:17:58;;;;;;;;;;;;;;;;;;5016039;28;43074;-88
2023/03/31 04:20:29;;;;;;;;;;;;;;;;;;5032886;28;43000;-87
2023/03/31 04:22:55;;;;;;;;;;;;;;;;;;5012343;28;43009;-87
2023/03/31 04:25:21;;;;;;;;;;;;;;;;;;5033398;28;43262;-87
2023/03/31 04:27:53;;;;;;;;;;;;;;;;;;5016527;28;42928;-87
2023/03/31 04:30:22;;;;;;;;;;;;;;;;;;5007829;28;45526;-88
2023/03/31 04:32:49;;;;;;;;;;;;;;;;;;5010691;28;43105;-88
2023/03/31 04:35:16;;;;;;;;;;;;;;;;;;5003665;28;44693;-87
2023/03/31 04:37:42;;;;;;;;;;;;;;;;;;5008783;28;43072;-89
2023/03/31 04:40:08;;;;;;;;;;;;;;;;;;5016772;28;45498;-89
2023/03/31 04:42:34;;;;;;;;;;;;;;;;;;5033904;28;42905;-90
2023/03/31 04:45:00;;;;;;;;;;;;;;;;;;5024751;28;43827;-85
2023/03/31 04:47:26;;;;;;;;;;;;;;;;;;5028495;28;42953;-83
2023/03/31 04:49:52;;;;;;;;;;;;;;;;;;5022012;28;42985;-85
2023/03/31 04:52:18;;;;;;;;;;;;;;;;;;5030129;28;43034;-88
2023/03/31 04:54:44;;;;;;;;;;;;;;;;;;5033404;28;43838;-89
2023/03/31 04:57:10;;;;;;;;;;;;;;;;;;5015335;28;43019;-90
2023/03/31 04:59:36;;;;;;;;;;;;;;;;;;5005538;28;44234;-88
2023/03/31 05:02:02;;;;;;;;;;;;;;;;;;4998876;28;42853;-90
2023/03/31 05:04:28;;;;;;;;;;;;;;;;;;5029142;28;45056;-88
2023/03/31 05:06:54;;;;;;;;;;;;;;;;;;5003724;28;44668;-91
2023/03/31 05:09:20;;;;;;;;;;;;;;;;;;5008547;28;43696;-89
2023/03/31 05:11:46;;;;;;;;;;;;;;;;;;5013300;28;43118;-91
2023/03/31 05:14:15;;;;;;;;;;;;;;;;;;5023698;28;44518;-91
2023/03/31 05:16:42;;;;;;;;;;;;;;;;;;5006662;28;42968;-88
2023/03/31 05:19:07;;;;;;;;;;;;;;;;;;5037000;28;43428;-88
2023/03/31 05:21:36;;;;;;;;;;;;;;;;;;5037430;28;43214;-89
2023/03/31 05:24:03;;;;;;;;;;;;;;;;;;5008188;28;44277;-89
2023/03/31 05:26:29;;;;;;;;;;;;;;;;;;5025877;28;42973;-86
2023/03/31 05:28:55;;;;;;;;;;;;;;;;;;5027179;28;42913;-86
2023/03/31 05:31:21;;;;;;;;;;;;;;;;;;5027215;28;42827;-86
2023/03/31 05:33:47;;;;;;;;;;;;;;;;;;5027311;28;42978;-88
2023/03/31 05:36:13;;;;;;;;;;;;;;;;;;5027318;28;42960;-88
2023/03/31 05:38:39;;;;;;;;;;;;;;;;;;5026714;28;42976;-88
2023/03/31 05:41:05;;;;;;;;;;;;;;;;;;5027280;28;42939;-87
2023/03/31 05:43:31;;;;;;;;;;;;;;;;;;5026583;28;43115;-87
2023/03/31 05:45:57;;;;;;;;;;;;;;;;;;5026976;28;42913;-88
2023/03/31 05:48:23;;;;;;;;;;;;;;;;;;5026752;28;42918;-88
2023/03/31 05:50:49;;;;;;;;;;;;;;;;;;5026790;28;43115;-87
2023/03/31 05:53:15;;;;;;;;;;;;;;;;;;5027150;28;42952;-88
2023/03/31 05:55:41;;;;;;;;;;;;;;;;;;5009023;28;43220;-87
2023/03/31 05:58:07;;;;;;;;;;;;;;;;;;5009234;28;45692;-87
2023/03/31 06:00:34;;;;;;;;;;;;;;;;;;5008899;28;42909;-86
2023/03/31 06:03:00;;;;;;;;;;;;;;;;;;5008953;28;44656;-86
2023/03/31 06:05:26;;;;;;;;;;;;;;;;;;5009241;28;42921;-87
2023/03/31 06:07:52;;;;;;;;;;;;;;;;;;5026927;28;42972;-88
2023/03/31 06:10:18;;;;;;;;;;;;;;;;;;5009392;28;42999;-87
2023/03/31 06:12:44;;;;;;;;;;;;;;;;;;5008652;28;44722;-87
2023/03/31 06:15:10;;;;;;;;;;;;;;;;;;5026193;28;42862;-88
2023/03/31 06:17:36;;;;;;;;;;;;;;;;;;5008448;28;45840;-89
2023/03/31 06:20:04;;;;;;;;;;;;;;;;;;5026410;28;42996;-88
2023/03/31 06:22:30;;;;;;;;;;;;;;;;;;5026216;28;43155;-88
2023/03/31 06:24:56;;;;;;;;;;;;;;;;;;5008820;28;42764;-88
2023/03/31 06:27:22;;;;;;;;;;;;;;;;;;5026659;28;42950;-89
2023/03/31 06:29:49;;;;;;;;;;;;;;;;;;5026362;28;42746;-88
2023/03/31 06:32:15;;;;;;;;;;;;;;;;;;5025885;28;43485;-89
2023/03/31 06:34:41;;;;;;;;;;;;;;;;;;5008176;28;43008;-87
2023/03/31 06:37:07;;;;;;;;;;;;;;;;;;5008011;28;45472;-88
2023/03/31 06:39:32;;;;;;;;;;;;;;;;;;5008218;28;43020;-89
2023/03/31 06:41:58;;;;;;;;;;;;;;;;;;5026201;28;42902;-88
2023/03/31 06:44:24;;;;;;;;;;;;;;;;;;5026395;28;43001;-86
2023/03/31 06:46:50;;;;;;;;;;;;;;;;;;5026401;28;42985;-89
2023/03/31 06:49:16;;;;;;;;;;;;;;;;;;5008791;28;42986;-88
2023/03/31 06:51:42;;;;;;;;;;;;;;;;;;5025960;28;42975;-88
2023/03/31 06:54:08;;;;;;;;;;;;;;;;;;5008410;28;43104;-88
2023/03/31 06:56:34;;;;;;;;;;;;;;;;;;5008135;28;43441;-88
2023/03/31 06:59:00;;;;;;;;;;;;;;;;;;5026180;28;42927;-88
2023/03/31 07:01:26;;;;;;;;;;;;;;;;;;5026233;28;44009;-88
2023/03/31 07:03:52;;;;;;;;;;;;;;;;;;5007900;28;42961;-88
2023/03/31 07:06:18;;;;;;;;;;;;;;;;;;5007913;28;45641;-88
2023/03/31 07:08:44;;;;;;;;;;;;;;;;;;5007985;28;42814;-86
2023/03/31 07:11:10;;;;;;;;;;;;;;;;;;5008132;28;44936;-88
2023/03/31 07:13:36;;;;;;;;;;;;;;;;;;5007292;28;42974;-89
2023/03/31 07:16:03;;;;;;;;;;;;;;;;;;5025284;28;42985;-88
2023/03/31 07:18:33;;;;;;;;;;;;;;;;;;5007511;28;42940;-87
2023/03/31 07:20:59;;;;;;;;;;;;;;;;;;5025318;28;42933;-88
2023/03/31 07:23:25;;;;;;;;;;;;;;;;;;5024486;28;42919;-88
2023/03/31 07:25:51;;;;;;;;;;;;;;;;;;5007132;28;45535;-88
2023/03/31 07:28:17;;;;;;;;;;;;;;;;;;5025162;28;43086;-88
2023/03/31 07:30:43;;;;;;;;;;;;;;;;;;5025511;28;43793;-88
2023/03/31 07:33:09;;;;;;;;;;;;;;;;;;5008068;28;42961;-89
2023/03/31 07:35:35;;;;;;;;;;;;;;;;;;5007431;28;45396;-88
2023/03/31 07:38:01;;;;;;;;;;;;;;;;;;5007346;28;42798;-88
2023/03/31 07:40:27;;;;;;;;;;;;;;;;;;5024911;28;42880;-89
2023/03/31 07:42:53;;;;;;;;;;;;;;;;;;5007520;28;43168;-88
2023/03/31 07:45:19;;;;;;;;;;;;;;;;;;5025164;28;42917;-88
2023/03/31 07:47:45;;;;;;;;;;;;;;;;;;5024874;28;42998;-87
2023/03/31 07:50:11;;;;;;;;;;;;;;;;;;5007200;28;44423;-87
2023/03/31 07:52:37;;;;;;;;;;;;;;;;;;5007236;28;43013;-87
2023/03/31 07:55:03;;;;;;;;;;;;;;;;;;5024608;28;43550;-87
2023/03/31 07:57:29;;;;;;;;;;;;;;;;;;5025164;28;42764;-89
2023/03/31 07:59:55;;;;;;;;;;;;;;;;;;5007302;28;44431;-88
2023/03/31 08:02:20;;;;;;;;;;;;;;;;;;5025274;28;43020;-89
2023/03/31 08:04:46;;;;;;;;;;;;;;;;;;5024707;28;42982;-84
2023/03/31 08:07:12;;;;;;;;;;;;;;;;;;5024948;28;42914;-84
2023/03/31 08:09:38;;;;;;;;;;;;;;;;;;5024960;28;42940;-84
2023/03/31 08:12:04;;;;;;;;;;;;;;;;;;5025332;28;42921;-84
2023/03/31 08:14:30;;;;;;;;;;;;;;;;;;5024889;28;42933;-84
2023/03/31 08:16:56;;;;;;;;;;;;;;;;;;5025147;28;42850;-84
2023/03/31 08:19:22;;;;;;;;;;;;;;;;;;5025303;28;42945;-84
2023/03/31 08:21:48;;;;;;;;;;;;;;;;;;5024954;28;43217;-84
2023/03/31 08:24:14;;;;;;;;;;;;;;;;;;5024023;28;43069;-84
2023/03/31 08:26:40;;;;;;;;;;;;;;;;;;5024608;28;42985;-84
2023/03/31 08:29:06;;;;;;;;;;;;;;;;;;5024902;28;43465;-84
2023/03/31 08:31:32;;;;;;;;;;;;;;;;;;5025138;28;42999;-84
2023/03/31 08:33:58;;;;;;;;;;;;;;;;;;5024772;28;43932;-84
2023/03/31 08:36:24;;;;;;;;;;;;;;;;;;5024856;28;42937;-84
2023/03/31 08:38:50;;;;;;;;;;;;;;;;;;5025838;28;43895;-84
2023/03/31 08:41:16;;;;;;;;;;;;;;;;;;5028286;28;42711;-84
2023/03/31 08:43:41;;;;;;;;;;;;;;;;;;5027461;28;42917;-83
2023/03/31 08:46:07;;;;;;;;;;;;;;;;;;5010022;28;43048;-83
2023/03/31 08:48:33;;;;;;;;;;;;;;;;;;5028002;28;42982;-84
2023/03/31 08:50:59;;;;;;;;;;;;;;;;;;5028045;28;42907;-84
2023/03/31 08:53:25;;;;;;;;;;;;;;;;;;5027462;28;43837;-84
2023/03/31 08:55:51;;;;;;;;;;;;;;;;;;5028052;28;42874;-84
2023/03/31 08:58:17;;;;;;;;;;;;;;;;;;5010027;28;44440;-84
2023/03/31 09:00:43;;;;;;;;;;;;;;;;;;5028426;28;42883;-84
2023/03/31 09:03:09;;;;;;;;;;;;;;;;;;5027718;28;43402;-85
2023/03/31 09:05:35;;;;;;;;;;;;;;;;;;5028014;28;42874;-84
2023/03/31 09:08:01;;;;;;;;;;;;;;;;;;5027815;28;42760;-84
2023/03/31 09:10:27;;;;;;;;;;;;;;;;;;5027556;28;42789;-84
2023/03/31 09:12:53;;;;;;;;;;;;;;;;;;5027494;28;42921;-84
2023/03/31 09:15:19;;;;;;;;;;;;;;;;;;5027136;28;42981;-84
2023/03/31 09:17:45;;;;;;;;;;;;;;;;;;5027286;28;43014;-85
2023/03/31 09:20:12;;;;;;;;;;;;;;;;;;5027436;28;42775;-84
2023/03/31 09:22:38;;;;;;;;;;;;;;;;;;5027300;28;42961;-84
2023/03/31 09:25:04;;;;;;;;;;;;;;;;;;5027639;28;42995;-84
2023/03/31 09:27:31;;;;;;;;;;;;;;;;;;5027486;28;43547;-85
2023/03/31 09:29:57;;;;;;;;;;;;;;;;;;5027819;28;42917;-84
2023/03/31 09:32:23;;;;;;;;;;;;;;;;;;5027383;28;43677;-84
2023/03/31 09:34:49;;;;;;;;;;;;;;;;;;5027820;28;42902;-85
2023/03/31 09:37:15;;;;;;;;;;;;;;;;;;5026693;28;42963;-84
2023/03/31 09:39:41;;;;;;;;;;;;;;;;;;5027441;28;42994;-84
2023/03/31 09:42:07;;;;;;;;;;;;;;;;;;5027110;28;44129;-84
2023/03/31 09:44:33;;;;;;;;;;;;;;;;;;5027297;28;43028;-84
2023/03/31 09:46:59;;;;;;;;;;;;;;;;;;5027308;28;42875;-84
2023/03/31 09:49:25;;;;;;;;;;;;;;;;;;5009136;28;43114;-83
2023/03/31 09:51:51;;;;;;;;;;;;;;;;;;5026428;28;43612;-84
2023/03/31 09:54:17;;;;;;;;;;;;;;;;;;5027039;28;42930;-84
2023/03/31 09:56:44;;;;;;;;;;;;;;;;;;5026992;28;43555;-84
2023/03/31 09:59:10;;;;;;;;;;;;;;;;;;5026433;28;43048;-84
2023/03/31 10:01:36;;;;;;;;;;;;;;;;;;5027087;28;43524;-84
2023/03/31 10:04:04;;;;;;;;;;;;;;;;;;5026299;28;43007;-84
2023/03/31 10:06:30;;;;;;;;;;;;;;;;;;5025654;28;43840;-83
2023/03/31 10:08:56;;;;;;;;;;;;;;;;;;5018135;28;42901;-90
2023/03/31 10:11:26;;;;;;;;;;;;;;;;;;5007698;28;42908;-91
2023/03/31 10:13:52;;;;;;;;;;;;;;;;;;5015492;28;43092;-91
2023/03/31 10:16:17;;;;;;;;;;;;;;;;;;5012185;28;42945;-91
2023/03/31 10:18:43;;;;;;;;;;;;;;;;;;5006912;28;43217;-91
2023/03/31 10:21:09;;;;;;;;;;;;;;;;;;5006603;28;44542;-93
2023/03/31 10:23:38;;;;;;;;;;;;;;;;;;5018685;28;43108;-94
2023/03/31 10:26:07;;;;;;;;;;;;;;;;;;5012312;28;44835;-93
2023/03/31 10:28:33;;;;;;;;;;;;;;;;;;5028017;28;43036;-92
2023/03/31 10:31:02;;;;;;;;;;;;;;;;;;5014647;28;44394;-92
2023/03/31 10:33:28;;;;;;;;;;;;;;;;;;5018280;28;43340;-91
2023/03/31 10:35:54;;;;;;;;;;;;;;;;;;5025141;28;42819;-92
2023/03/31 10:38:23;;;;;;;;;;;;;;;;;;5024327;28;43019;-92
2023/03/31 10:40:49;;;;;;;;;;;;;;;;;;5026324;28;42867;-92
2023/03/31 10:43:18;;;;;;;;;;;;;;;;;;5010663;28;43004;-91
2023/03/31 10:45:45;;;;;;;;;;;;;;;;;;5015157;28;44772;-92
2023/03/31 10:48:11;;;;;;;;;;;;;;;;;;5022019;28;43126;-91
2023/03/31 10:50:37;;;;;;;;;;;;;;;;;;5008568;28;44447;-93
2023/03/31 10:53:03;;;;;;;;;;;;;;;;;;5008657;28;43001;-91
2023/03/31 10:55:29;;;;;;;;;;;;;;;;;;5025960;28;43861;-91
2023/03/31 10:57:55;;;;;;;;;;;;;;;;;;5025982;28;42999;-92
2023/03/31 11:00:21;;;;;;;;;;;;;;;;;;5025640;28;43576;-91
2023/03/31 11:02:49;;;;;;;;;;;;;;;;;;5025360;28;42914;-92
2023/03/31 11:05:14;;;;;;;;;;;;;;;;;;5025526;28;43666;-89
2023/03/31 11:07:40;;;;;;;;;;;;;;;;;;5025928;28;43546;-90
2023/03/31 11:10:06;;;;;;;;;;;;;;;;;;5008176;28;44722;-87
2023/03/31 11:12:32;;;;;;;;;;;;;;;;;;5027066;28;42865;-87
2023/03/31 11:14:58;;;;;;;;;;;;;;;;;;5026373;28;43003;-90
2023/03/31 11:17:33;;;;;;;;;;;;;;;;;;5008137;28;43877;-92
2023/03/31 11:19:59;;;;;;;;;;;;;;;;;;5025905;28;43028;-88
2023/03/31 11:22:25;;;;;;;;;;;;;;;;;;5008173;28;42931;-93
2023/03/31 11:24:51;;;;;;;;;;;;;;;;;;5025580;28;43593;-85
2023/03/31 11:27:17;;;;;;;;;;;;;;;;;;5028182;28;42989;-84
2023/03/31 11:29:43;;;;;;;;;;;;;;;;;;5027562;28;43021;-85
2023/03/31 11:32:11;;;;;;;;;;;;;;;;;;5028513;28;43008;-88
2023/03/31 11:34:37;;;;;;;;;;;;;;;;;;5028141;28;42871;-82
2023/03/31 11:37:03;;;;;;;;;;;;;;;;;;5028657;28;42814;-82
2023/03/31 11:39:29;;;;;;;;;;;;;;;;;;5027689;28;43765;-82
2023/03/31 11:41:55;;;;;;;;;;;;;;;;;;5028466;28;42801;-83
2023/03/31 11:44:21;;;;;;;;;;;;;;;;;;5028293;28;43517;-85
2023/03/31 11:46:47;;;;;;;;;;;;;;;;;;5027289;28;43004;-86
2023/03/31 11:49:13;;;;;;;;;;;;;;;;;;5008248;28;43711;-85
2023/03/31 11:51:39;;;;;;;;;;;;;;;;;;5026457;28;42914;-87
2023/03/31 11:54:10;;;;;;;;;;;;;;;;;;5027179;28;43862;-81
2023/03/31 11:56:36;;;;;;;;;;;;;;;;;;5026394;28;43221;-83
2023/03/31 11:59:03;;;;;;;;;;;;;;;;;;5026083;28;43559;-84
2023/03/31 12:01:31;;;;;;;;;;;;;;;;;;5025795;28;42893;-91
2023/03/31 12:03:56;;;;;;;;;;;;;;;;;;5027253;28;42898;-85
2023/03/31 12:06:22;;;;;;;;;;;;;;;;;;5026757;28;43078;-86
2023/03/31 12:08:48;;;;;;;;;;;;;;;;;;5025125;28;43679;-84
2023/03/31 12:11:14;;;;;;;;;;;;;;;;;;5025738;28;42974;-87
2023/03/31 12:13:40;;;;;;;;;;;;;;;;;;5007898;28;44084;-85
2023/03/31 12:16:06;;;;;;;;;;;;;;;;;;5025056;28;42776;-89
2023/03/31 12:18:32;;;;;;;;;;;;;;;;;;5006881;28;44609;-89
2023/03/31 12:20:58;;;;;;;;;;;;;;;;;;5024053;28;42922;-85
2023/03/31 12:23:24;;;;;;;;;;;;;;;;;;5025722;28;43043;-86
2023/03/31 12:25:52;;;;;;;;;;;;;;;;;;5030527;28;59432;-88
2023/03/31 12:28:18;;;;;;;;;;;;;;;;;;5033663;28;42992;-80
2023/03/31 12:30:44;;;;;;;;;;;;;;;;;;5024674;28;43079;-81
2023/03/31 12:33:10;;;;;;;;;;;;;;;;;;5035358;28;43027;-82
2023/03/31 12:35:36;;;;;;;;;;;;;;;;;;5035703;28;43074;-80
2023/03/31 12:38:01;;;;;;;;;;;;;;;;;;5025325;28;42927;-82
2023/03/31 12:40:27;;;;;;;;;;;;;;;;;;5004174;28;43001;-80
2023/03/31 12:42:53;;;;;;;;;;;;;;;;;;5026356;28;44069;-82
2023/03/31 12:45:19;;;;;;;;;;;;;;;;;;5025695;28;42862;-81
2023/03/31 12:47:46;;;;;;;;;;;;;;;;;;5025501;28;42996;-79
2023/03/31 12:50:12;;;;;;;;;;;;;;;;;;5024182;28;43020;-81
2023/03/31 12:52:37;;;;;;;;;;;;;;;;;;5022201;28;43821;-79
2023/03/31 12:55:03;;;;;;;;;;;;;;;;;;5018370;28;42977;-77
2023/03/31 12:57:29;;;;;;;;;;;;;;;;;;5024454;28;43579;-80
2023/03/31 12:59:55;;;;;;;;;;;;;;;;;;5023174;28;43108;-79
2023/03/31 13:02:21;;;;;;;;;;;;;;;;;;5023381;28;42976;-82
2023/03/31 13:04:49;;;;;;;;;;;;;;;;;;5022719;28;42934;-80
2023/03/31 13:07:15;;;;;;;;;;;;;;;;;;5021861;28;43058;-79
2023/03/31 13:09:41;;;;;;;;;;;;;;;;;;5022001;28;42921;-79
2023/03/31 13:12:07;;;;;;;;;;;;;;;;;;5020984;28;43494;-77
2023/03/31 13:14:33;;;;;;;;;;;;;;;;;;5017890;28;43108;-77
2023/03/31 13:16:59;;;;;;;;;;;;;;;;;;5021570;28;43038;-81
2023/03/31 13:19:25;;;;;;;;;;;;;;;;;;5021549;28;43091;-80
2023/03/31 13:21:50;;;;;;;;;;;;;;;;;;5021424;28;43290;-78
2023/03/31 13:24:16;;;;;;;;;;;;;;;;;;5021689;28;43025;-78
2023/03/31 13:26:42;;;;;;;;;;;;;;;;;;5024292;28;43639;-77
2023/03/31 13:29:08;;;;;;;;;;;;;;;;;;5025614;28;43494;-80
2023/03/31 13:31:34;;;;;;;;;;;;;;;;;;5022421;28;43778;-80
2023/03/31 13:34:00;;;;;;;;;;;;;;;;;;5024167;28;42951;-82
2023/03/31 13:36:26;;;;;;;;;;;;;;;;;;5024892;28;43754;-80
2023/03/31 13:38:52;;;;;;;;;;;;;;;;;;5025089;28;42996;-79
2023/03/31 13:41:18;;;;;;;;;;;;;;;;;;5024737;28;43057;-81
2023/03/31 13:43:44;;;;;;;;;;;;;;;;;;5025008;28;43173;-77
2023/03/31 13:46:10;;;;;;;;;;;;;;;;;;5025290;28;43451;-77
2023/03/31 13:48:35;;;;;;;;;;;;;;;;;;5024188;28;43028;-79
2023/03/31 13:51:01;;;;;;;;;;;;;;;;;;5024346;28;42936;-77
2023/03/31 13:53:27;;;;;;;;;;;;;;;;;;5016198;28;43062;-79
2023/03/31 13:55:53;;;;;;;;;;;;;;;;;;5025209;28;42965;-80
2023/03/31 13:58:19;;;;;;;;;;;;;;;;;;5007393;28;42942;-76
2023/03/31 14:00:45;;;;;;;;;;;;;;;;;;5023563;28;44031;-77
2023/03/31 14:03:11;;;;;;;;;;;;;;;;;;5024999;28;43093;-78
2023/03/31 14:05:38;;;;;;;;;;;;;;;;;;5025015;28;43044;-78
2023/03/31 14:08:04;;;;;;;;;;;;;;;;;;5022884;28;43101;-79
2023/03/31 14:10:30;;;;;;;;;;;;;;;;;;5024878;28;42878;-77
2023/03/31 14:12:56;;;;;;;;;;;;;;;;;;5022158;28;42968;-77
2023/03/31 14:15:22;;;;;;;;;;;;;;;;;;5025540;28;43695;-76
2023/03/31 14:17:48;;;;;;;;;;;;;;;;;;5025724;28;42937;-78
2023/03/31 14:20:14;;;;;;;;;;;;;;;;;;5024286;28;45372;-76
2023/03/31 14:22:40;;;;;;;;;;;;;;;;;;5030649;28;42960;-77
2023/03/31 14:25:06;;;;;;;;;;;;;;;;;;5024672;28;43495;-78
2023/03/31 14:27:32;;;;;;;;;;;;;;;;;;5020597;28;42939;-77
2023/03/31 14:29:58;;;;;;;;;;;;;;;;;;5026157;28;43434;-76
2023/03/31 14:32:25;;;;;;;;;;;;;;;;;;5024873;28;43028;-78
2023/03/31 14:34:52;;;;;;;;;;;;;;;;;;5025082;28;42992;-79
2023/03/31 14:37:19;;;;;;;;;;;;;;;;;;5037991;28;43054;-80
2023/03/31 14:39:45;;;;;;;;;;;;;;;;;;5025668;28;43414;-79
2023/03/31 14:42:11;;;;;;;;;;;;;;;;;;5024761;28;43176;-77
2023/03/31 14:44:37;;;;;;;;;;;;;;;;;;5022710;28;43033;-79
2023/03/31 14:47:03;;;;;;;;;;;;;;;;;;5024470;28;42984;-80
2023/03/31 14:49:29;;;;;;;;;;;;;;;;;;5025383;28;42917;-79
2023/03/31 14:51:55;;;;;;;;;;;;;;;;;;5025173;28;43034;-78
2023/03/31 14:54:21;;;;;;;;;;;;;;;;;;5023828;28;43452;-78
2023/03/31 14:56:48;;;;;;;;;;;;;;;;;;5006521;28;43087;-79
2023/03/31 14:59:14;;;;;;;;;;;;;;;;;;5025354;28;43118;-78
2023/03/31 15:01:40;;;;;;;;;;;;;;;;;;5025220;28;42909;-79
2023/03/31 15:04:06;;;;;;;;;;;;;;;;;;5025446;28;43035;-78
2023/03/31 15:06:32;;;;;;;;;;;;;;;;;;5025559;28;42976;-79
2023/03/31 15:08:58;;;;;;;;;;;;;;;;;;5025519;28;42942;-79
2023/03/31 15:11:24;;;;;;;;;;;;;;;;;;5007389;28;42981;-79
2023/03/31 15:13:50;;;;;;;;;;;;;;;;;;5024887;28;43206;-79
2023/03/31 15:16:16;;;;;;;;;;;;;;;;;;5024705;28;42982;-78
2023/03/31 15:18:43;;;;;;;;;;;;;;;;;;5025411;28;43608;-79
2023/03/31 15:21:09;;;;;;;;;;;;;;;;;;5025339;28;42928;-78
2023/03/31 15:23:35;;;;;;;;;;;;;;;;;;5024825;28;42853;-79
2023/03/31 15:26:01;;;;;;;;;;;;;;;;;;5024803;28;42905;-78
2023/03/31 15:28:26;;;;;;;;;;;;;;;;;;5025339;28;42928;-79
2023/03/31 15:30:52;;;;;;;;;;;;;;;;;;5025695;28;43265;-79
2023/03/31 15:33:18;;;;;;;;;;;;;;;;;;5024387;28;43333;-79
2023/03/31 15:35:45;;;;;;;;;;;;;;;;;;5025297;28;43545;-79
2023/03/31 15:38:10;;;;;;;;;;;;;;;;;;5024766;28;43105;-79
2023/03/31 15:40:39;;;;;;;;;;;;;;;;;;5024177;28;43136;-79
2023/03/31 15:43:06;;;;;;;;;;;;;;;;;;5024600;28;43064;-79
2023/03/31 15:45:32;;;;;;;;;;;;;;;;;;5024901;28;43093;-79
2023/03/31 15:47:58;;;;;;;;;;;;;;;;;;5023951;28;42956;-80
2023/03/31 15:50:24;;;;;;;;;;;;;;;;;;5024071;28;42949;-79
2023/03/31 15:52:52;;;;;;;;;;;;;;;;;;5024814;28;43322;-80
2023/03/31 15:55:17;;;;;;;;;;;;;;;;;;5024400;28;42910;-79
2023/03/31 15:57:43;;;;;;;;;;;;;;;;;;5024962;28;42784;-79
2023/03/31 16:00:10;;;;;;;;;;;;;;;;;;5006122;28;43014;-79
2023/03/31 16:02:36;;;;;;;;;;;;;;;;;;5024390;28;44736;-79
2023/03/31 16:05:02;;;;;;;;;;;;;;;;;;5024707;28;43619;-79
2023/03/31 16:07:28;;;;;;;;;;;;;;;;;;5024551;28;42920;-78
2023/03/31 16:09:54;;;;;;;;;;;;;;;;;;5024178;28;42982;-79
2023/03/31 16:12:20;;;;;;;;;;;;;;;;;;5024531;28;42863;-79
2023/03/31 16:14:46;;;;;;;;;;;;;;;;;;5026413;28;42975;-81
2023/03/31 16:17:12;;;;;;;;;;;;;;;;;;5025932;28;42755;-79
2023/03/31 16:19:38;;;;;;;;;;;;;;;;;;5006145;28;42784;-79
2023/03/31 16:22:04;;;;;;;;;;;;;;;;;;5025114;28;42947;-78
2023/03/31 16:24:30;;;;;;;;;;;;;;;;;;5023487;28;42917;-79
2023/03/31 16:26:56;;;;;;;;;;;;;;;;;;5023965;28;43932;-79
2023/03/31 16:29:22;;;;;;;;;;;;;;;;;;5024062;28;43007;-78
2023/03/31 16:31:48;;;;;;;;;;;;;;;;;;5033224;28;43059;-79
2023/03/31 16:34:14;;;;;;;;;;;;;;;;;;5014305;28;42970;-79
2023/03/31 16:36:39;;;;;;;;;;;;;;;;;;5026158;28;43571;-79
2023/03/31 16:39:05;;;;;;;;;;;;;;;;;;5023068;28;42729;-79